createdAt,value
2023-01-25T00:01:41.907Z,101047.69
2023-01-25T00:04:09.451Z,101050.06
2023-01-25T00:06:37.518Z,101049.06
2023-01-25T00:09:05.895Z,101057.84
2023-01-25T00:11:33.484Z,101054.31
2023-01-25T00:14:00.947Z,101050.66
2023-01-25T00:16:28.490Z,101044.00
2023-01-25T00:18:56.045Z,101046.28
2023-01-25T00:21:26.006Z,101051.50
2023-01-25T00:23:54.204Z,101057.59
2023-01-25T00:26:22.279Z,101051.03
2023-01-25T00:28:55.410Z,101046.22
2023-01-25T00:31:50.293Z,101049.13
2023-01-25T00:34:26.791Z,101048.66
2023-01-25T00:37:03.438Z,101049.13
2023-01-25T00:39:31.165Z,101051.16
2023-01-25T00:41:58.686Z,101049.03
2023-01-25T00:44:26.917Z,101049.31
2023-01-25T00:46:54.452Z,101044.56
2023-01-25T00:49:30.969Z,101049.66
2023-01-25T00:51:59.525Z,101059.28
2023-01-25T00:54:27.295Z,101067.41
2023-01-25T00:56:56.577Z,101060.34
2023-01-25T00:59:25.984Z,101061.53
2023-01-25T01:01:55.471Z,101060.19
2023-01-25T01:04:27.080Z,101055.81
2023-01-25T01:06:55.242Z,101061.88
2023-01-25T01:09:24.823Z,101056.81
2023-01-25T01:11:54.270Z,101060.66
2023-01-25T01:14:24.355Z,101055.97
2023-01-25T01:16:52.038Z,101056.34
2023-01-25T01:19:19.845Z,101058.63
2023-01-25T01:21:47.830Z,101049.13
2023-01-25T01:24:15.460Z,101057.84
2023-01-25T01:26:43.271Z,101050.00
2023-01-25T01:29:10.930Z,101049.34
2023-01-25T01:31:38.583Z,101049.47
2023-01-25T01:34:16.341Z,101049.50
2023-01-25T01:36:43.961Z,101041.31
2023-01-25T01:39:11.621Z,101044.22
2023-01-25T01:41:41.936Z,101037.31
2023-01-25T01:44:24.183Z,101031.09
2023-01-25T01:47:00.046Z,101029.91
2023-01-25T01:49:33.947Z,101028.75
2023-01-25T01:52:15.417Z,101027.59
2023-01-25T01:54:53.375Z,101028.34
2023-01-25T01:57:32.746Z,101032.78
2023-01-25T02:00:12.126Z,101023.28
2023-01-25T02:02:44.577Z,101023.56
2023-01-25T02:05:31.535Z,101031.38
2023-01-25T02:08:01.369Z,101029.78
2023-01-25T02:10:30.445Z,101033.59
2023-01-25T02:12:59.644Z,101032.31
2023-01-25T02:15:43.170Z,101029.72
2023-01-25T02:18:12.499Z,101031.22
2023-01-25T02:20:45.058Z,101033.53
2023-01-25T02:23:32.791Z,101024.97
2023-01-25T02:26:04.695Z,101027.81
2023-01-25T02:28:50.982Z,101027.06
2023-01-25T02:31:18.834Z,101028.47
2023-01-25T02:33:49.536Z,101025.44
2023-01-25T02:36:32.241Z,101019.88
2023-01-25T02:39:11.892Z,101028.38
2023-01-25T02:41:44.915Z,101019.34
2023-01-25T02:44:33.540Z,101024.69
2023-01-25T02:47:04.490Z,101011.84
2023-01-25T02:49:34.684Z,101022.22
2023-01-25T02:52:02.590Z,101025.19
2023-01-25T02:54:30.948Z,101027.94
2023-01-25T02:56:59.013Z,101022.72
2023-01-25T02:59:30.418Z,101031.63
2023-01-25T03:02:00.385Z,101030.78
2023-01-25T03:04:29.036Z,101036.28
2023-01-25T03:06:56.708Z,101034.34
2023-01-25T03:09:24.360Z,101027.25
2023-01-25T03:11:51.941Z,101020.53
2023-01-25T03:14:21.925Z,101014.75
2023-01-25T03:16:50.360Z,101014.06
2023-01-25T03:19:20.858Z,101014.88
2023-01-25T03:21:48.480Z,101017.06
2023-01-25T03:24:16.063Z,101021.38
2023-01-25T03:27:05.290Z,101012.59
2023-01-25T03:29:38.901Z,101015.13
2023-01-25T03:32:11.842Z,101011.41
2023-01-25T03:34:39.875Z,101007.38
2023-01-25T03:37:08.143Z,101014.56
2023-01-25T03:39:37.352Z,101010.28
2023-01-25T03:42:05.116Z,101009.81
2023-01-25T03:44:33.603Z,101014.25
2023-01-25T03:47:01.266Z,101014.81
2023-01-25T03:49:29.902Z,101012.22
2023-01-25T03:51:58.115Z,101015.13
2023-01-25T03:54:33.916Z,101012.97
2023-01-25T03:57:02.056Z,101020.53
2023-01-25T03:59:30.573Z,101016.88
2023-01-25T04:01:58.219Z,101019.38
2023-01-25T04:04:25.709Z,101020.75
2023-01-25T04:06:53.872Z,101018.09
2023-01-25T04:09:23.561Z,101020.47
2023-01-25T04:11:53.785Z,101023.53
2023-01-25T04:14:35.114Z,101020.03
2023-01-25T04:17:10.942Z,101029.81
2023-01-25T04:19:49.561Z,101030.72
2023-01-25T04:22:20.244Z,101024.28
2023-01-25T04:24:49.681Z,101022.78
2023-01-25T04:27:17.128Z,101028.84
2023-01-25T04:29:58.413Z,101025.59
2023-01-25T04:32:27.337Z,101024.63
2023-01-25T04:34:55.588Z,101033.41
2023-01-25T04:37:26.593Z,101038.19
2023-01-25T04:39:58.237Z,101033.28
2023-01-25T04:42:27.078Z,101037.53
2023-01-25T04:44:57.064Z,101035.25
2023-01-25T04:47:25.048Z,101036.75
2023-01-25T04:49:52.614Z,101036.06
2023-01-25T04:52:24.115Z,101040.16
2023-01-25T04:54:51.790Z,101033.09
2023-01-25T04:57:19.228Z,101034.38
2023-01-25T04:59:51.239Z,101033.94
2023-01-25T05:02:19.528Z,101044.22
2023-01-25T05:04:47.581Z,101036.00
2023-01-25T05:07:15.163Z,101048.00
2023-01-25T05:09:43.153Z,101039.88
2023-01-25T05:12:13.769Z,101039.03
2023-01-25T05:14:54.845Z,101040.72
2023-01-25T05:17:23.558Z,101038.59
2023-01-25T05:19:51.034Z,101042.28
2023-01-25T05:22:21.981Z,101038.09
2023-01-25T05:24:53.490Z,101039.88
2023-01-25T05:27:22.162Z,101040.34
2023-01-25T05:29:56.944Z,101044.59
2023-01-25T05:32:36.921Z,101042.47
2023-01-25T05:35:04.782Z,101050.53
2023-01-25T05:37:32.384Z,101053.88
2023-01-25T05:40:08.349Z,101054.34
2023-01-25T05:42:38.768Z,101051.75
2023-01-25T05:45:14.748Z,101049.00
2023-01-25T05:47:43.526Z,101052.75
2023-01-25T05:50:11.514Z,101055.06
2023-01-25T05:52:50.283Z,101052.84
2023-01-25T05:55:20.902Z,101060.81
2023-01-25T05:57:50.490Z,101056.56
2023-01-25T06:00:19.258Z,101050.53
2023-01-25T06:02:46.959Z,101051.50
2023-01-25T06:05:19.854Z,101051.84
2023-01-25T06:07:47.438Z,101055.28
2023-01-25T06:10:15.843Z,101058.13
2023-01-25T06:12:44.621Z,101061.22
2023-01-25T06:15:12.385Z,101061.66
2023-01-25T06:17:40.514Z,101068.38
2023-01-25T06:20:34.483Z,101066.72
2023-01-25T06:23:07.803Z,101062.94
2023-01-25T06:25:38.183Z,101063.22
2023-01-25T06:28:06.058Z,101061.06
2023-01-25T06:30:33.618Z,101062.84
2023-01-25T06:33:02.158Z,101061.47
2023-01-25T06:35:32.465Z,101065.66
2023-01-25T06:38:00.886Z,101064.06
2023-01-25T06:40:29.981Z,101059.06
2023-01-25T06:43:08.009Z,101059.03
2023-01-25T06:45:38.774Z,101066.72
2023-01-25T06:48:06.536Z,101061.97
2023-01-25T06:50:34.070Z,101059.91
2023-01-25T06:53:01.585Z,101054.63
2023-01-25T06:55:31.608Z,101060.34
2023-01-25T06:58:01.643Z,101064.34
2023-01-25T07:00:29.276Z,101065.63
2023-01-25T07:02:56.849Z,101066.84
2023-01-25T07:05:24.397Z,101071.88
2023-01-25T07:07:51.850Z,101061.63
2023-01-25T07:10:21.667Z,101063.28
2023-01-25T07:12:49.212Z,101062.69
2023-01-25T07:15:16.853Z,101063.25
2023-01-25T07:17:44.575Z,101070.38
2023-01-25T07:20:12.608Z,101065.22
2023-01-25T07:22:40.119Z,101066.03
2023-01-25T07:25:08.423Z,101066.59
2023-01-25T07:27:36.440Z,101065.25
2023-01-25T07:30:04.927Z,101068.38
2023-01-25T07:32:32.380Z,101075.22
2023-01-25T07:35:00.347Z,101074.66
2023-01-25T07:37:28.087Z,101069.25
2023-01-25T07:39:58.242Z,101072.22
2023-01-25T07:42:25.747Z,101076.59
2023-01-25T07:45:12.261Z,101071.94
2023-01-25T07:47:39.926Z,101083.06
2023-01-25T07:50:08.288Z,101079.31
2023-01-25T07:52:35.777Z,101085.75
2023-01-25T07:55:03.785Z,101086.69
2023-01-25T07:57:31.457Z,101094.28
2023-01-25T08:00:00.459Z,101082.78
2023-01-25T08:02:29.371Z,101079.81
2023-01-25T08:04:56.792Z,101076.69
2023-01-25T08:07:24.349Z,101077.69
2023-01-25T08:09:53.051Z,101077.59
2023-01-25T08:12:20.577Z,101076.16
2023-01-25T08:14:49.943Z,101083.25
2023-01-25T08:17:17.439Z,101092.53
2023-01-25T08:19:44.978Z,101088.34
2023-01-25T08:22:13.661Z,101086.34
2023-01-25T08:24:41.216Z,101087.28
2023-01-25T08:27:08.771Z,101084.88
2023-01-25T08:29:36.250Z,101085.00
2023-01-25T08:32:06.530Z,101087.16
2023-01-25T08:34:34.702Z,101091.69
2023-01-25T08:37:02.307Z,101091.25
2023-01-25T08:39:30.308Z,101096.09
2023-01-25T08:41:57.894Z,101089.69
2023-01-25T08:44:26.182Z,101091.16
2023-01-25T08:46:53.657Z,101098.41
2023-01-25T08:49:21.773Z,101093.47
2023-01-25T08:51:53.018Z,101091.97
2023-01-25T08:54:20.487Z,101091.50
2023-01-25T08:56:48.147Z,101088.03
2023-01-25T08:59:16.179Z,101088.59
2023-01-25T09:01:43.686Z,101083.78
2023-01-25T09:04:11.641Z,101084.19
2023-01-25T09:06:39.122Z,101084.69
2023-01-25T09:09:08.599Z,101079.63
2023-01-25T09:11:38.298Z,101080.31
2023-01-25T09:14:05.925Z,101076.47
2023-01-25T09:16:33.478Z,101065.06
2023-01-25T09:19:04.343Z,101069.38
2023-01-25T09:21:32.604Z,101065.19
2023-01-25T09:24:08.898Z,101058.88
2023-01-25T09:26:46.008Z,101056.28
2023-01-25T09:29:17.495Z,101054.13
2023-01-25T09:31:46.332Z,101054.88
2023-01-25T09:34:31.403Z,101048.75
2023-01-25T09:36:58.843Z,101041.75
2023-01-25T09:39:26.967Z,101043.66
2023-01-25T09:42:14.873Z,101030.31
2023-01-25T09:44:59.329Z,101032.16
2023-01-25T09:47:52.017Z,101024.28
2023-01-25T09:50:46.562Z,101025.50
2023-01-25T09:53:35.913Z,101021.19
2023-01-25T09:56:20.742Z,101010.38
2023-01-25T09:58:52.208Z,101002.56
2023-01-25T10:01:50.422Z,101010.06
2023-01-25T10:04:25.372Z,101012.94
2023-01-25T10:07:01.553Z,101005.41
2023-01-25T10:09:58.317Z,101004.06
2023-01-25T10:12:29.093Z,101002.47
2023-01-25T10:14:56.696Z,100989.63
2023-01-25T10:18:12.834Z,100983.72
2023-01-25T10:20:45.418Z,100977.88
2023-01-25T10:23:37.044Z,100970.53
2023-01-25T10:26:33.682Z,100962.19
2023-01-25T10:29:21.566Z,100959.06
2023-01-25T10:31:55.015Z,100953.94
2023-01-25T10:34:46.991Z,100959.72
2023-01-25T10:37:35.173Z,100948.53
2023-01-25T10:40:16.038Z,100952.16
2023-01-25T10:42:54.845Z,100954.75
2023-01-25T10:45:22.478Z,100948.16
2023-01-25T10:48:03.525Z,100937.34
2023-01-25T10:50:46.282Z,100933.63
2023-01-25T10:53:37.658Z,100927.56
2023-01-25T10:56:25.876Z,100931.72
2023-01-25T10:59:14.638Z,100918.59
2023-01-25T11:01:43.583Z,100922.78
2023-01-25T11:04:35.352Z,100932.75
2023-01-25T11:07:08.298Z,100934.75
2023-01-25T11:09:40.301Z,100925.06
2023-01-25T11:12:18.812Z,100919.28
2023-01-25T11:14:51.958Z,100910.53
2023-01-25T11:17:32.091Z,100911.53
2023-01-25T11:20:21.003Z,100917.44
2023-01-25T11:22:57.327Z,100903.56
2023-01-25T11:25:55.498Z,100900.94
2023-01-25T11:28:26.387Z,100898.25
2023-01-25T11:30:54.484Z,100897.63
2023-01-25T11:33:26.624Z,100885.06
2023-01-25T11:36:14.693Z,100890.03
2023-01-25T11:39:05.797Z,100888.28
2023-01-25T11:42:10.231Z,100877.16
2023-01-25T11:45:10.847Z,100870.88
2023-01-25T11:47:50.588Z,100868.09
2023-01-25T11:50:35.199Z,100867.91
2023-01-25T11:53:36.583Z,100865.78
2023-01-25T11:56:51.347Z,100865.84
2023-01-25T11:59:56.192Z,100855.00
2023-01-25T12:03:24.467Z,100858.41
2023-01-25T12:06:26.247Z,100855.63
2023-01-25T12:09:56.545Z,100850.16
2023-01-25T12:12:38.127Z,100847.25
2023-01-25T12:15:42.411Z,100841.38
2023-01-25T12:18:52.915Z,100838.13
2023-01-25T12:21:40.921Z,100831.16
2023-01-25T12:24:37.696Z,100828.44
2023-01-25T12:31:23.524Z,100810.41
2023-01-25T12:34:05.428Z,100810.50
2023-01-25T12:36:45.332Z,100817.34
2023-01-25T12:39:32.527Z,100822.69
2023-01-25T12:42:35.344Z,100822.81
2023-01-25T12:45:30.688Z,100809.16
2023-01-25T12:48:22.880Z,100806.81
2023-01-25T12:51:01.120Z,100817.44
2023-01-25T12:53:37.606Z,100807.66
2023-01-25T12:56:21.471Z,100801.78
2023-01-25T12:59:00.674Z,100800.28
2023-01-25T13:01:42.399Z,100801.69
2023-01-25T13:04:39.724Z,100797.69
2023-01-25T13:08:23.211Z,100792.13
2023-01-25T13:11:31.948Z,100794.16
2023-01-25T13:14:27.078Z,100789.63
2023-01-25T13:17:12.151Z,100785.84
2023-01-25T13:19:50.202Z,100782.88
2023-01-25T13:22:58.867Z,100787.38
2023-01-25T13:25:27.546Z,100778.88
2023-01-25T13:28:43.685Z,100778.97
2023-01-25T13:31:59.001Z,100785.44
2023-01-25T13:34:35.849Z,100783.16
2023-01-25T13:37:20.739Z,100785.56
2023-01-25T13:39:55.858Z,100778.38
2023-01-25T13:42:26.505Z,100776.16
2023-01-25T13:45:11.779Z,100771.84
2023-01-25T13:47:41.857Z,100772.94
2023-01-25T13:50:21.767Z,100773.22
2023-01-25T13:53:03.542Z,100773.47
2023-01-25T13:55:42.159Z,100777.97
2023-01-25T13:58:36.824Z,100781.09
2023-01-25T14:01:14.946Z,100781.25
2023-01-25T14:03:50.981Z,100784.16
2023-01-25T14:06:46.681Z,100786.00
2023-01-25T14:09:20.892Z,100791.84
2023-01-25T14:12:01.839Z,100786.53
2023-01-25T14:14:33.156Z,100795.13
2023-01-25T14:17:18.732Z,100794.97
2023-01-25T14:20:10.066Z,100790.34
2023-01-25T14:22:38.179Z,100786.66
2023-01-25T14:25:19.315Z,100781.97
2023-01-25T14:27:48.577Z,100771.19
2023-01-25T14:30:31.076Z,100772.09
2023-01-25T14:33:40.463Z,100773.44
2023-01-25T14:36:24.588Z,100773.03
2023-01-25T14:38:54.564Z,100773.66
2023-01-25T14:41:48.842Z,100777.59
2023-01-25T14:44:24.803Z,100776.47
2023-01-25T14:47:33.919Z,100783.28
2023-01-25T14:50:39.469Z,100777.84
2023-01-25T14:53:27.378Z,100780.16
2023-01-25T14:55:56.363Z,100781.09
2023-01-25T14:58:29.214Z,100780.72
2023-01-25T15:01:01.536Z,100790.53
2023-01-25T15:03:31.557Z,100780.97
2023-01-25T15:06:04.649Z,100781.50
2023-01-25T15:08:39.478Z,100779.59
2023-01-25T15:11:49.153Z,100770.13
2023-01-25T15:14:22.859Z,100772.06
2023-01-25T15:16:50.469Z,100771.34
2023-01-25T15:19:32.543Z,100779.50
2023-01-25T15:22:01.559Z,100785.56
2023-01-25T15:24:30.568Z,100786.47
2023-01-25T15:26:58.010Z,100788.69
2023-01-25T15:29:28.489Z,100782.34
2023-01-25T15:31:58.661Z,100782.94
2023-01-25T15:34:32.539Z,100783.88
2023-01-25T15:37:00.153Z,100773.41
2023-01-25T15:39:28.899Z,100784.09
2023-01-25T15:41:56.571Z,100782.41
2023-01-25T15:44:24.030Z,100782.94
2023-01-25T15:46:53.683Z,100773.31
2023-01-25T15:49:28.936Z,100776.59
2023-01-25T15:51:57.178Z,100784.88
2023-01-25T15:54:24.832Z,100784.00
2023-01-25T15:56:57.932Z,100780.41
2023-01-25T15:59:29.542Z,100781.19
2023-01-25T16:01:57.307Z,100779.84
2023-01-25T16:04:26.385Z,100784.88
2023-01-25T16:06:55.566Z,100784.88
2023-01-25T16:09:27.356Z,100795.56
2023-01-25T16:11:57.291Z,100800.88
2023-01-25T16:14:31.359Z,100800.09
2023-01-25T16:17:04.507Z,100802.34
2023-01-25T16:19:33.333Z,100801.94
2023-01-25T16:22:01.744Z,100803.94
2023-01-25T16:24:29.367Z,100805.84
2023-01-25T16:27:00.049Z,100806.75
2023-01-25T16:29:28.342Z,100804.84
2023-01-25T16:31:57.440Z,100811.19
2023-01-25T16:34:25.185Z,100800.50
2023-01-25T16:36:53.235Z,100803.56
2023-01-25T16:39:27.085Z,100806.94
2023-01-25T16:41:58.446Z,100817.31
2023-01-25T16:44:26.260Z,100809.88
2023-01-25T16:46:55.454Z,100810.13
2023-01-25T16:49:30.718Z,100800.75
2023-01-25T16:52:05.651Z,100799.94
2023-01-25T16:54:35.809Z,100793.31
2023-01-25T16:57:14.961Z,100789.44
2023-01-25T16:59:48.193Z,100789.22
2023-01-25T17:02:18.871Z,100780.97
2023-01-25T17:04:47.025Z,100776.69
2023-01-25T17:07:18.733Z,100771.41
2023-01-25T17:09:46.319Z,100761.50
2023-01-25T17:12:17.076Z,100755.06
2023-01-25T17:14:45.429Z,100758.91
2023-01-25T17:17:13.597Z,100754.31
2023-01-25T17:19:41.295Z,100746.59
2023-01-25T17:22:10.078Z,100741.09
2023-01-25T17:24:39.818Z,100739.66
2023-01-25T17:27:08.681Z,100738.19
2023-01-25T17:29:37.612Z,100750.41
2023-01-25T17:32:05.708Z,100746.47
2023-01-25T17:34:35.194Z,100747.22
2023-01-25T17:37:02.914Z,100747.00
2023-01-25T17:39:30.849Z,100752.81
2023-01-25T17:41:58.467Z,100752.28
2023-01-25T17:44:26.746Z,100749.03
2023-01-25T17:46:54.334Z,100759.03
2023-01-25T17:49:24.901Z,100752.72
2023-01-25T17:51:53.508Z,100745.63
2023-01-25T17:54:21.524Z,100750.03
2023-01-25T17:56:51.183Z,100744.84
2023-01-25T17:59:18.725Z,100745.38
2023-01-25T18:02:07.246Z,100732.97
2023-01-25T18:04:40.356Z,100733.34
2023-01-25T18:07:10.414Z,100728.84
2023-01-25T18:09:39.122Z,100731.44
2023-01-25T18:12:07.525Z,100728.75
2023-01-25T18:14:36.733Z,100729.53
2023-01-25T18:17:06.012Z,100732.56
2023-01-25T18:19:36.341Z,100725.13
2023-01-25T18:22:06.191Z,100730.63
2023-01-25T18:24:37.772Z,100734.09
2023-01-25T18:27:27.836Z,100736.72
2023-01-25T18:30:02.650Z,100729.78
2023-01-25T18:32:33.015Z,100740.41
2023-01-25T18:35:04.530Z,100730.75
2023-01-25T18:37:39.532Z,100717.78
2023-01-25T18:40:09.907Z,100719.38
2023-01-25T18:42:39.697Z,100714.78
2023-01-25T18:45:12.838Z,100720.19
2023-01-25T18:47:43.484Z,100722.53
2023-01-25T18:50:17.695Z,100731.91
2023-01-25T18:52:46.394Z,100727.66
2023-01-25T18:55:15.407Z,100728.00
2023-01-25T18:57:46.309Z,100730.69
2023-01-25T19:00:17.232Z,100727.84
2023-01-25T19:02:45.461Z,100721.56
2023-01-25T19:05:14.538Z,100724.91
2023-01-25T19:07:43.523Z,100725.47
2023-01-25T19:10:16.711Z,100739.34
2023-01-25T19:12:44.982Z,100727.06
2023-01-25T19:15:13.313Z,100729.06
2023-01-25T19:17:42.366Z,100722.34
2023-01-25T19:20:11.390Z,100720.75
2023-01-25T19:22:41.641Z,100720.63
2023-01-25T19:25:11.393Z,100720.00
2023-01-25T19:27:41.439Z,100709.59
2023-01-25T19:30:11.910Z,100702.72
2023-01-25T19:32:42.766Z,100703.41
2023-01-25T19:35:12.537Z,100704.13
2023-01-25T19:37:45.561Z,100698.09
2023-01-25T19:40:15.985Z,100696.53
2023-01-25T19:42:44.111Z,100685.88
2023-01-25T19:45:24.106Z,100690.47
2023-01-25T19:48:00.601Z,100689.25
2023-01-25T19:50:31.314Z,100685.06
2023-01-25T19:53:00.878Z,100670.06
2023-01-25T19:55:28.523Z,100675.09
2023-01-25T19:58:00.469Z,100671.00
2023-01-25T20:00:30.460Z,100666.75
2023-01-25T20:03:14.794Z,100650.94
2023-01-25T20:05:51.491Z,100643.72
2023-01-25T20:08:19.526Z,100633.69
2023-01-25T20:10:48.843Z,100629.25
2023-01-25T20:13:16.620Z,100635.25
2023-01-25T20:15:48.508Z,100631.31
2023-01-25T20:18:18.227Z,100627.00
2023-01-25T20:20:46.576Z,100623.97
2023-01-25T20:23:14.602Z,100626.75
2023-01-25T20:25:42.251Z,100635.28
2023-01-25T20:30:53.488Z,100630.34
2023-01-25T20:33:21.788Z,100630.91
2023-01-25T20:35:50.513Z,100625.16
2023-01-25T20:38:18.789Z,100627.38
2023-01-25T20:40:46.360Z,100622.00
2023-01-25T20:43:13.932Z,100622.28
2023-01-25T20:45:41.648Z,100624.97
2023-01-25T20:48:10.956Z,100618.88
2023-01-25T20:50:39.917Z,100620.28
2023-01-25T20:53:07.436Z,100612.19
2023-01-25T20:55:43.604Z,100618.13
2023-01-25T20:58:12.986Z,100611.94
2023-01-25T21:00:41.577Z,100611.66
2023-01-25T21:03:09.406Z,100602.19
2023-01-25T21:05:38.220Z,100615.94
2023-01-25T21:08:05.848Z,100606.47
2023-01-25T21:10:33.368Z,100609.16
2023-01-25T21:13:01.075Z,100603.06
2023-01-25T21:15:28.787Z,100602.50
2023-01-25T21:17:57.574Z,100600.31
2023-01-25T21:20:25.564Z,100603.38
2023-01-25T21:23:14.673Z,100595.47
2023-01-25T21:25:42.316Z,100598.69
2023-01-25T21:28:10.086Z,100598.03
2023-01-25T21:30:39.041Z,100593.16
2023-01-25T21:33:07.693Z,100596.72
2023-01-25T21:35:35.158Z,100596.94
2023-01-25T21:38:02.816Z,100591.06
2023-01-25T21:40:31.986Z,100582.28
2023-01-25T21:42:59.634Z,100579.41
2023-01-25T21:45:48.390Z,100579.88
2023-01-25T21:48:36.401Z,100571.75
2023-01-25T21:51:23.528Z,100574.25
2023-01-25T21:53:51.068Z,100575.34
2023-01-25T21:56:18.975Z,100569.50
2023-01-25T21:58:49.571Z,100569.75
2023-01-25T22:01:20.116Z,100575.78
2023-01-25T22:03:51.946Z,100570.41
2023-01-25T22:06:21.119Z,100563.66
2023-01-25T22:08:48.973Z,100548.22
2023-01-25T22:11:16.555Z,100547.38
2023-01-25T22:13:44.109Z,100534.16
2023-01-25T22:16:13.372Z,100523.84
2023-01-25T22:18:44.350Z,100521.38
2023-01-25T22:21:30.820Z,100514.41
2023-01-25T22:24:06.825Z,100505.06
2023-01-25T22:27:24.661Z,100506.66
2023-01-25T22:29:52.197Z,100491.91
2023-01-25T22:32:19.739Z,100496.28
2023-01-25T22:34:47.190Z,100500.53
2023-01-25T22:37:14.707Z,100496.28
2023-01-25T22:39:42.159Z,100483.25
2023-01-25T22:42:09.727Z,100501.00
2023-01-25T22:44:37.207Z,100496.41
2023-01-25T22:47:04.734Z,100503.31
2023-01-25T22:49:32.256Z,100502.25
2023-01-25T22:52:00.107Z,100504.47
2023-01-25T22:54:27.619Z,100500.88
2023-01-25T22:56:55.159Z,100502.13
2023-01-25T22:59:22.624Z,100496.53
2023-01-25T23:01:50.567Z,100487.91
2023-01-25T23:04:18.464Z,100494.16
2023-01-25T23:06:46.239Z,100491.75
2023-01-25T23:09:13.881Z,100487.13
2023-01-25T23:11:41.466Z,100486.84
2023-01-25T23:14:31.225Z,100483.19
2023-01-25T23:17:17.388Z,100472.50
2023-01-25T23:19:45.035Z,100472.97
2023-01-25T23:22:13.606Z,100469.19
2023-01-25T23:24:41.070Z,100468.59
2023-01-25T23:27:08.619Z,100470.72
2023-01-25T23:29:37.179Z,100470.38
2023-01-25T23:32:05.874Z,100470.97
2023-01-25T23:34:37.436Z,100467.75
2023-01-25T23:37:06.010Z,100464.22
2023-01-25T23:39:34.327Z,100454.16
2023-01-25T23:42:02.307Z,100452.97
2023-01-25T23:44:30.076Z,100455.56
2023-01-25T23:46:58.203Z,100453.91
2023-01-25T23:49:25.752Z,100452.66
2023-01-25T23:51:53.341Z,100457.06
2023-01-25T23:54:20.861Z,100454.47
2023-01-25T23:56:48.339Z,100456.34
2023-01-25T23:59:15.826Z,100459.41
